Meteo Giornale » Osservazioni meteo Stati Uniti (USA) » Lawrenceville Gwinnett Co-Briscoe Fld
ore: 14:56 - Osservazioni Meteo Lawrenceville Gwinnett Co-Briscoe Fld
Lat. 33° 58' N Lon. 83° 57' W Alt. 323 metri s.l.m.
34 °C
Sereno
Temp. 24 Ore
22 °C
34 °C
Nord-Est
9.3 Km/h
Dew point 20 °C
Umidità 43 %
Visibilità 10 Km
Il sole sorge alle ore 07:09
Il sole tramonta alle ore 20:01
| Data e Ora | Cielo e Fenomeni | T °C | DP °C | Um. % | Pres. hPa | Vis. km | Vento km/h | |
|---|---|---|---|---|---|---|---|---|
| Oggi h: 14:56 | Sereno | 34 | 20 | 43 | 1020 | 10 | NE 9.3 | |
| Oggi h: 13:56 | Sereno | 33 | 19 | 43 | 1020 | 10 | N 5.5 | |
| Oggi h: 12:56 | Sereno | 32 | 21 | 52 | 1021 | 10 | N 7.4 | |
| Oggi h: 11:56 | Sereno | 32 | 22 | 55 | 1021 | 10 | NE 9.3 | |
| Oggi h: 10:56 | Sereno | 30 | 23 | 66 | 1022 | 10 | N 0 | |
| Oggi h: 09:56 | Sereno | 28 | 23 | 74 | 1021 | 10 | N 0 | |
| Oggi h: 08:56 | Sereno | 26 | 24 | 88 | 1021 | 10 | N 5.5 | |
| Oggi h: 07:56 | Sereno | 23 | 0 | 21 | 1021 | 10 | N 0 | |
| Oggi h: 06:56 | Sereno | 22 | 0 | 23 | 1020 | 10 | N 0 | |
| Oggi h: 05:56 | Sereno | 22 | 0 | 23 | 1020 | 10 | N 0 | |
| Oggi h: 04:56 | Sereno | 22 | 0 | 23 | 1020 | 10 | N 0 | |
| Oggi h: 03:56 | Sereno | 23 | 0 | 21 | 1020 | 10 | N 5.5 | |
| Oggi h: 02:56 | Sereno | 23 | 0 | 21 | 1020 | 10 | N 0 | |
| Oggi h: 01:56 | Sereno | 23 | 0 | 21 | 1020 | 10 | N 0 | |
| Oggi h: 00:56 | Sereno | 24 | 24 | 100 | 1020 | 10 | N 0 | |
| Ieri h: 23:56 | Sereno | 23 | 0 | 21 | 1020 | 10 | N 0 | |
| Ieri h: 22:56 | Sereno | 24 | 24 | 100 | 1020 | 10 | N 0 | |
| Ieri h: 21:56 | Sereno | 26 | 24 | 88 | 1020 | 10 | N 0 | |
| Ieri h: 20:56 | Sereno | 27 | 23 | 78 | 1019 | 10 | N 0 | |
| Ieri h: 19:56 | Sereno | 29 | 21 | 62 | 1019 | 10 | N 0 | |
| Ieri h: 18:56 | Sereno | 32 | 19 | 46 | 1019 | 10 | N 0 | |
| Ieri h: 17:56 | Nuvoloso | 33 | 20 | 46 | 1019 | 10 | N 5.5 | |
| Ieri h: 16:56 | Nuvoloso | 31 | 19 | 48 | 1020 | 10 | N 0 | |
| Ieri h: 15:56 | Nuvoloso | 33 | 19 | 43 | 1020 | 10 | NE 13 | |



